sensor_id;sensor_type;location;lat;lon;timestamp;P1;durP1;ratioP1;P2;durP2;ratioP2
43325;SDS011;28920;59.862;30.636;2022-08-20T00:02:25;11.63;;;7.87;;
43325;SDS011;28920;59.862;30.636;2022-08-20T00:04:53;10.18;;;6.82;;
43325;SDS011;28920;59.862;30.636;2022-08-20T00:07:20;11.40;;;6.97;;
43325;SDS011;28920;59.862;30.636;2022-08-20T00:09:48;9.98;;;7.30;;
43325;SDS011;28920;59.862;30.636;2022-08-20T00:12:16;10.98;;;7.37;;
43325;SDS011;28920;59.862;30.636;2022-08-20T00:14:44;10.50;;;6.95;;
43325;SDS011;28920;59.862;30.636;2022-08-20T00:17:12;10.35;;;6.75;;
43325;SDS011;28920;59.862;30.636;2022-08-20T00:19:42;9.90;;;6.72;;
43325;SDS011;28920;59.862;30.636;2022-08-20T00:22:09;11.95;;;7.35;;
43325;SDS011;28920;59.862;30.636;2022-08-20T00:24:38;11.32;;;7.47;;
43325;SDS011;28920;59.862;30.636;2022-08-20T00:27:06;11.55;;;7.65;;
43325;SDS011;28920;59.862;30.636;2022-08-20T00:29:34;9.32;;;7.05;;
43325;SDS011;28920;59.862;30.636;2022-08-20T00:32:02;9.95;;;7.43;;
43325;SDS011;28920;59.862;30.636;2022-08-20T00:34:30;11.45;;;7.72;;
43325;SDS011;28920;59.862;30.636;2022-08-20T00:37:00;8.75;;;7.07;;
43325;SDS011;28920;59.862;30.636;2022-08-20T00:39:27;11.68;;;7.65;;
43325;SDS011;28920;59.862;30.636;2022-08-20T00:41:55;10.35;;;7.57;;
43325;SDS011;28920;59.862;30.636;2022-08-20T00:44:24;11.68;;;7.50;;
43325;SDS011;28920;59.862;30.636;2022-08-20T00:46:52;12.63;;;8.27;;
43325;SDS011;28920;59.862;30.636;2022-08-20T00:49:21;9.48;;;7.43;;
43325;SDS011;28920;59.862;30.636;2022-08-20T00:51:54;11.23;;;7.15;;
43325;SDS011;28920;59.862;30.636;2022-08-20T00:54:27;11.00;;;8.13;;
43325;SDS011;28920;59.862;30.636;2022-08-20T00:57:01;9.85;;;7.35;;
43325;SDS011;28920;59.862;30.636;2022-08-20T00:59:32;12.45;;;6.80;;
43325;SDS011;28920;59.862;30.636;2022-08-20T01:02:05;10.80;;;7.12;;
43325;SDS011;28920;59.862;30.636;2022-08-20T01:04:36;12.68;;;6.85;;
43325;SDS011;28920;59.862;30.636;2022-08-20T01:07:05;11.55;;;6.87;;
43325;SDS011;28920;59.862;30.636;2022-08-20T01:09:35;10.48;;;7.35;;
43325;SDS011;28920;59.862;30.636;2022-08-20T01:12:04;8.30;;;6.47;;
43325;SDS011;28920;59.862;30.636;2022-08-20T01:14:33;9.15;;;6.75;;
43325;SDS011;28920;59.862;30.636;2022-08-20T01:17:09;13.10;;;7.50;;
43325;SDS011;28920;59.862;30.636;2022-08-20T01:19:42;11.38;;;7.43;;
43325;SDS011;28920;59.862;30.636;2022-08-20T01:22:13;11.18;;;7.18;;
43325;SDS011;28920;59.862;30.636;2022-08-20T01:25:06;8.52;;;6.57;;
43325;SDS011;28920;59.862;30.636;2022-08-20T01:27:40;10.65;;;6.53;;
43325;SDS011;28920;59.862;30.636;2022-08-20T01:30:09;12.60;;;7.32;;
43325;SDS011;28920;59.862;30.636;2022-08-20T01:32:37;12.15;;;7.00;;
43325;SDS011;28920;59.862;30.636;2022-08-20T01:35:06;11.12;;;7.28;;
43325;SDS011;28920;59.862;30.636;2022-08-20T01:37:35;13.95;;;6.97;;
43325;SDS011;28920;59.862;30.636;2022-08-20T01:40:03;10.60;;;6.93;;
43325;SDS011;28920;59.862;30.636;2022-08-20T01:42:41;9.82;;;7.00;;
43325;SDS011;28920;59.862;30.636;2022-08-20T01:45:14;10.20;;;7.57;;
43325;SDS011;28920;59.862;30.636;2022-08-20T01:47:42;15.55;;;7.62;;
43325;SDS011;28920;59.862;30.636;2022-08-20T01:50:14;12.57;;;7.28;;
43325;SDS011;28920;59.862;30.636;2022-08-20T01:52:50;12.10;;;6.97;;
43325;SDS011;28920;59.862;30.636;2022-08-20T01:55:23;9.23;;;7.22;;
43325;SDS011;28920;59.862;30.636;2022-08-20T01:57:54;12.43;;;7.28;;
43325;SDS011;28920;59.862;30.636;2022-08-20T02:00:24;13.70;;;7.07;;
43325;SDS011;28920;59.862;30.636;2022-08-20T02:02:52;8.27;;;6.65;;
43325;SDS011;28920;59.862;30.636;2022-08-20T02:05:20;12.95;;;6.97;;
43325;SDS011;28920;59.862;30.636;2022-08-20T02:07:48;9.88;;;6.47;;
43325;SDS011;28920;59.862;30.636;2022-08-20T02:10:17;13.85;;;8.27;;
43325;SDS011;28920;59.862;30.636;2022-08-20T02:12:45;12.40;;;7.60;;
43325;SDS011;28920;59.862;30.636;2022-08-20T02:15:14;8.27;;;6.78;;
43325;SDS011;28920;59.862;30.636;2022-08-20T02:17:42;12.73;;;7.68;;
43325;SDS011;28920;59.862;30.636;2022-08-20T02:20:12;18.35;;;8.32;;
43325;SDS011;28920;59.862;30.636;2022-08-20T02:22:44;12.02;;;7.47;;
43325;SDS011;28920;59.862;30.636;2022-08-20T02:25:14;10.75;;;7.97;;
43325;SDS011;28920;59.862;30.636;2022-08-20T02:27:43;13.13;;;8.32;;
43325;SDS011;28920;59.862;30.636;2022-08-20T02:30:16;11.50;;;8.23;;
43325;SDS011;28920;59.862;30.636;2022-08-20T02:32:46;14.50;;;8.43;;
43325;SDS011;28920;59.862;30.636;2022-08-20T02:35:14;9.88;;;6.60;;
43325;SDS011;28920;59.862;30.636;2022-08-20T02:37:44;10.88;;;8.35;;
43325;SDS011;28920;59.862;30.636;2022-08-20T02:40:13;10.73;;;7.55;;
43325;SDS011;28920;59.862;30.636;2022-08-20T02:42:43;12.60;;;7.62;;
43325;SDS011;28920;59.862;30.636;2022-08-20T02:45:12;11.05;;;7.97;;
43325;SDS011;28920;59.862;30.636;2022-08-20T02:50:14;15.10;;;7.15;;
43325;SDS011;28920;59.862;30.636;2022-08-20T02:52:43;15.65;;;7.25;;
43325;SDS011;28920;59.862;30.636;2022-08-20T02:55:11;13.98;;;8.43;;
43325;SDS011;28920;59.862;30.636;2022-08-20T02:57:41;11.80;;;7.50;;
43325;SDS011;28920;59.862;30.636;2022-08-20T03:00:10;14.18;;;8.27;;
43325;SDS011;28920;59.862;30.636;2022-08-20T03:02:39;10.52;;;7.55;;
43325;SDS011;28920;59.862;30.636;2022-08-20T03:05:09;12.73;;;7.30;;
43325;SDS011;28920;59.862;30.636;2022-08-20T03:07:42;11.63;;;6.93;;
43325;SDS011;28920;59.862;30.636;2022-08-20T03:10:10;14.18;;;7.35;;
43325;SDS011;28920;59.862;30.636;2022-08-20T03:12:39;12.32;;;7.30;;
43325;SDS011;28920;59.862;30.636;2022-08-20T03:15:08;12.45;;;6.43;;
43325;SDS011;28920;59.862;30.636;2022-08-20T03:17:37;9.77;;;7.60;;
43325;SDS011;28920;59.862;30.636;2022-08-20T03:20:06;12.13;;;7.05;;
43325;SDS011;28920;59.862;30.636;2022-08-20T03:22:36;11.85;;;6.65;;
43325;SDS011;28920;59.862;30.636;2022-08-20T03:25:04;14.13;;;8.05;;
43325;SDS011;28920;59.862;30.636;2022-08-20T03:27:33;9.13;;;7.00;;
43325;SDS011;28920;59.862;30.636;2022-08-20T03:30:02;11.55;;;7.35;;
43325;SDS011;28920;59.862;30.636;2022-08-20T03:32:32;10.30;;;6.50;;
43325;SDS011;28920;59.862;30.636;2022-08-20T03:35:00;12.02;;;7.07;;
43325;SDS011;28920;59.862;30.636;2022-08-20T03:37:29;10.07;;;6.47;;
43325;SDS011;28920;59.862;30.636;2022-08-20T03:39:59;13.15;;;6.95;;
43325;SDS011;28920;59.862;30.636;2022-08-20T03:42:28;8.90;;;6.62;;
43325;SDS011;28920;59.862;30.636;2022-08-20T03:44:56;10.65;;;6.70;;
43325;SDS011;28920;59.862;30.636;2022-08-20T03:47:24;11.35;;;6.97;;
43325;SDS011;28920;59.862;30.636;2022-08-20T03:49:56;11.18;;;6.60;;
43325;SDS011;28920;59.862;30.636;2022-08-20T03:52:24;9.07;;;6.28;;
43325;SDS011;28920;59.862;30.636;2022-08-20T03:54:54;9.32;;;6.72;;
43325;SDS011;28920;59.862;30.636;2022-08-20T03:57:24;9.68;;;6.82;;
43325;SDS011;28920;59.862;30.636;2022-08-20T03:59:53;9.77;;;6.93;;
43325;SDS011;28920;59.862;30.636;2022-08-20T04:02:20;14.87;;;6.53;;
43325;SDS011;28920;59.862;30.636;2022-08-20T04:04:50;11.60;;;6.10;;
43325;SDS011;28920;59.862;30.636;2022-08-20T04:07:19;10.30;;;6.47;;
43325;SDS011;28920;59.862;30.636;2022-08-20T04:09:53;10.57;;;6.15;;
43325;SDS011;28920;59.862;30.636;2022-08-20T04:12:24;14.60;;;7.00;;
43325;SDS011;28920;59.862;30.636;2022-08-20T04:14:52;12.52;;;6.85;;
43325;SDS011;28920;59.862;30.636;2022-08-20T04:17:20;13.90;;;6.87;;
43325;SDS011;28920;59.862;30.636;2022-08-20T04:19:49;9.02;;;6.72;;
43325;SDS011;28920;59.862;30.636;2022-08-20T04:22:17;15.40;;;7.72;;
43325;SDS011;28920;59.862;30.636;2022-08-20T04:24:45;11.93;;;6.85;;
43325;SDS011;28920;59.862;30.636;2022-08-20T04:27:13;13.10;;;6.37;;
43325;SDS011;28920;59.862;30.636;2022-08-20T04:29:42;12.93;;;7.28;;
43325;SDS011;28920;59.862;30.636;2022-08-20T04:32:10;7.70;;;6.12;;
43325;SDS011;28920;59.862;30.636;2022-08-20T04:34:38;12.30;;;7.30;;
43325;SDS011;28920;59.862;30.636;2022-08-20T04:37:07;9.55;;;6.62;;
43325;SDS011;28920;59.862;30.636;2022-08-20T04:39:36;17.00;;;6.35;;
43325;SDS011;28920;59.862;30.636;2022-08-20T04:42:04;15.25;;;7.32;;
43325;SDS011;28920;59.862;30.636;2022-08-20T04:44:32;12.52;;;6.57;;
43325;SDS011;28920;59.862;30.636;2022-08-20T04:47:01;11.05;;;6.82;;
43325;SDS011;28920;59.862;30.636;2022-08-20T04:49:31;10.13;;;6.28;;
43325;SDS011;28920;59.862;30.636;2022-08-20T04:51:59;13.77;;;6.25;;
43325;SDS011;28920;59.862;30.636;2022-08-20T04:54:28;11.48;;;6.57;;
43325;SDS011;28920;59.862;30.636;2022-08-20T04:56:56;12.98;;;6.95;;
43325;SDS011;28920;59.862;30.636;2022-08-20T04:59:26;11.88;;;6.90;;
43325;SDS011;28920;59.862;30.636;2022-08-20T05:01:54;12.60;;;6.60;;
43325;SDS011;28920;59.862;30.636;2022-08-20T05:04:23;15.00;;;6.45;;
43325;SDS011;28920;59.862;30.636;2022-08-20T05:06:53;13.18;;;6.62;;
43325;SDS011;28920;59.862;30.636;2022-08-20T05:09:20;12.52;;;6.75;;
43325;SDS011;28920;59.862;30.636;2022-08-20T05:11:48;9.50;;;6.70;;
43325;SDS011;28920;59.862;30.636;2022-08-20T05:14:16;15.48;;;6.93;;
43325;SDS011;28920;59.862;30.636;2022-08-20T05:16:44;12.10;;;6.62;;
43325;SDS011;28920;59.862;30.636;2022-08-20T05:19:12;9.15;;;5.78;;
43325;SDS011;28920;59.862;30.636;2022-08-20T05:21:42;15.98;;;8.63;;
43325;SDS011;28920;59.862;30.636;2022-08-20T05:24:09;11.18;;;6.10;;
43325;SDS011;28920;59.862;30.636;2022-08-20T05:26:37;9.73;;;6.35;;
43325;SDS011;28920;59.862;30.636;2022-08-20T05:29:06;15.90;;;6.93;;
43325;SDS011;28920;59.862;30.636;2022-08-20T05:31:34;10.90;;;6.07;;
43325;SDS011;28920;59.862;30.636;2022-08-20T05:34:04;10.55;;;6.35;;
43325;SDS011;28920;59.862;30.636;2022-08-20T05:36:34;12.27;;;7.68;;
43325;SDS011;28920;59.862;30.636;2022-08-20T05:39:03;12.15;;;6.28;;
43325;SDS011;28920;59.862;30.636;2022-08-20T05:41:31;10.02;;;7.05;;
43325;SDS011;28920;59.862;30.636;2022-08-20T05:44:00;16.20;;;7.40;;
43325;SDS011;28920;59.862;30.636;2022-08-20T05:46:28;10.75;;;6.45;;
43325;SDS011;28920;59.862;30.636;2022-08-20T05:48:57;10.07;;;7.62;;
43325;SDS011;28920;59.862;30.636;2022-08-20T05:51:26;11.25;;;6.62;;
43325;SDS011;28920;59.862;30.636;2022-08-20T05:53:56;10.95;;;6.45;;
43325;SDS011;28920;59.862;30.636;2022-08-20T05:56:25;12.02;;;6.53;;
43325;SDS011;28920;59.862;30.636;2022-08-20T05:58:55;9.00;;;6.65;;
43325;SDS011;28920;59.862;30.636;2022-08-20T06:01:23;9.85;;;5.82;;
43325;SDS011;28920;59.862;30.636;2022-08-20T06:03:51;9.60;;;7.32;;
43325;SDS011;28920;59.862;30.636;2022-08-20T06:06:37;8.85;;;6.50;;
43325;SDS011;28920;59.862;30.636;2022-08-20T06:09:05;10.98;;;6.62;;
43325;SDS011;28920;59.862;30.636;2022-08-20T06:11:34;12.02;;;7.32;;
43325;SDS011;28920;59.862;30.636;2022-08-20T06:14:03;7.85;;;6.28;;
43325;SDS011;28920;59.862;30.636;2022-08-20T06:16:31;10.98;;;7.18;;
43325;SDS011;28920;59.862;30.636;2022-08-20T06:18:59;13.13;;;7.28;;
43325;SDS011;28920;59.862;30.636;2022-08-20T06:21:26;10.65;;;7.20;;
43325;SDS011;28920;59.862;30.636;2022-08-20T06:23:55;11.93;;;8.60;;
43325;SDS011;28920;59.862;30.636;2022-08-20T06:26:22;14.35;;;8.73;;
43325;SDS011;28920;59.862;30.636;2022-08-20T06:28:52;13.82;;;8.70;;
43325;SDS011;28920;59.862;30.636;2022-08-20T06:31:21;14.82;;;9.25;;
43325;SDS011;28920;59.862;30.636;2022-08-20T06:33:48;19.08;;;8.80;;
43325;SDS011;28920;59.862;30.636;2022-08-20T06:36:16;15.77;;;9.15;;
43325;SDS011;28920;59.862;30.636;2022-08-20T06:38:45;17.83;;;8.43;;
43325;SDS011;28920;59.862;30.636;2022-08-20T06:41:13;17.05;;;9.38;;
43325;SDS011;28920;59.862;30.636;2022-08-20T06:43:41;14.32;;;8.90;;
43325;SDS011;28920;59.862;30.636;2022-08-20T06:46:11;19.83;;;9.60;;
43325;SDS011;28920;59.862;30.636;2022-08-20T06:48:39;16.20;;;9.55;;
43325;SDS011;28920;59.862;30.636;2022-08-20T06:51:07;18.52;;;9.50;;
43325;SDS011;28920;59.862;30.636;2022-08-20T06:53:35;16.30;;;9.10;;
43325;SDS011;28920;59.862;30.636;2022-08-20T06:56:04;15.68;;;9.32;;
43325;SDS011;28920;59.862;30.636;2022-08-20T06:58:32;17.35;;;8.05;;
43325;SDS011;28920;59.862;30.636;2022-08-20T07:01:00;11.65;;;8.15;;
43325;SDS011;28920;59.862;30.636;2022-08-20T07:03:31;13.25;;;7.80;;
43325;SDS011;28920;59.862;30.636;2022-08-20T07:06:01;11.50;;;8.18;;
43325;SDS011;28920;59.862;30.636;2022-08-20T07:08:28;19.33;;;9.30;;
43325;SDS011;28920;59.862;30.636;2022-08-20T07:10:56;13.68;;;7.65;;
43325;SDS011;28920;59.862;30.636;2022-08-20T07:13:25;10.98;;;8.02;;
43325;SDS011;28920;59.862;30.636;2022-08-20T07:15:53;12.13;;;7.82;;
43325;SDS011;28920;59.862;30.636;2022-08-20T07:18:22;16.65;;;8.10;;
43325;SDS011;28920;59.862;30.636;2022-08-20T07:20:52;12.93;;;7.30;;
43325;SDS011;28920;59.862;30.636;2022-08-20T07:23:21;17.08;;;7.45;;
43325;SDS011;28920;59.862;30.636;2022-08-20T07:25:49;11.35;;;7.32;;
43325;SDS011;28920;59.862;30.636;2022-08-20T07:28:18;11.25;;;7.82;;
43325;SDS011;28920;59.862;30.636;2022-08-20T07:30:49;12.48;;;7.32;;
43325;SDS011;28920;59.862;30.636;2022-08-20T07:33:35;13.68;;;7.32;;
43325;SDS011;28920;59.862;30.636;2022-08-20T07:36:06;8.43;;;6.57;;
43325;SDS011;28920;59.862;30.636;2022-08-20T07:38:35;11.07;;;6.57;;
43325;SDS011;28920;59.862;30.636;2022-08-20T07:41:04;10.93;;;6.60;;
43325;SDS011;28920;59.862;30.636;2022-08-20T07:43:34;10.38;;;6.80;;
43325;SDS011;28920;59.862;30.636;2022-08-20T07:46:04;11.45;;;6.60;;
43325;SDS011;28920;59.862;30.636;2022-08-20T07:48:34;15.45;;;7.00;;
43325;SDS011;28920;59.862;30.636;2022-08-20T07:51:04;10.27;;;6.85;;
43325;SDS011;28920;59.862;30.636;2022-08-20T07:53:36;8.88;;;5.90;;
43325;SDS011;28920;59.862;30.636;2022-08-20T07:56:05;8.52;;;5.25;;
43325;SDS011;28920;59.862;30.636;2022-08-20T07:58:35;8.93;;;5.70;;
43325;SDS011;28920;59.862;30.636;2022-08-20T08:01:05;11.30;;;5.60;;
43325;SDS011;28920;59.862;30.636;2022-08-20T08:03:37;12.20;;;5.28;;
43325;SDS011;28920;59.862;30.636;2022-08-20T08:06:06;12.48;;;6.07;;
43325;SDS011;28920;59.862;30.636;2022-08-20T08:08:37;14.40;;;5.45;;
43325;SDS011;28920;59.862;30.636;2022-08-20T08:11:07;11.65;;;5.15;;
43325;SDS011;28920;59.862;30.636;2022-08-20T08:13:35;9.52;;;5.57;;
43325;SDS011;28920;59.862;30.636;2022-08-20T08:16:07;14.15;;;5.37;;
43325;SDS011;28920;59.862;30.636;2022-08-20T08:18:42;13.57;;;5.45;;
43325;SDS011;28920;59.862;30.636;2022-08-20T08:21:15;11.60;;;5.32;;
43325;SDS011;28920;59.862;30.636;2022-08-20T08:23:44;14.05;;;5.03;;
43325;SDS011;28920;59.862;30.636;2022-08-20T08:26:12;14.30;;;4.85;;
43325;SDS011;28920;59.862;30.636;2022-08-20T08:28:41;11.02;;;4.15;;
43325;SDS011;28920;59.862;30.636;2022-08-20T08:31:10;7.68;;;4.45;;
43325;SDS011;28920;59.862;30.636;2022-08-20T08:33:38;13.65;;;4.80;;
43325;SDS011;28920;59.862;30.636;2022-08-20T08:36:08;9.93;;;4.53;;
43325;SDS011;28920;59.862;30.636;2022-08-20T08:38:39;10.57;;;5.10;;
43325;SDS011;28920;59.862;30.636;2022-08-20T08:41:11;18.98;;;5.28;;
43325;SDS011;28920;59.862;30.636;2022-08-20T08:43:44;11.73;;;4.37;;
43325;SDS011;28920;59.862;30.636;2022-08-20T08:46:14;11.90;;;4.22;;
43325;SDS011;28920;59.862;30.636;2022-08-20T08:48:46;19.40;;;5.87;;
43325;SDS011;28920;59.862;30.636;2022-08-20T08:51:20;16.25;;;4.57;;
43325;SDS011;28920;59.862;30.636;2022-08-20T08:53:55;17.55;;;5.35;;
43325;SDS011;28920;59.862;30.636;2022-08-20T08:56:26;12.43;;;5.05;;
43325;SDS011;28920;59.862;30.636;2022-08-20T08:58:55;18.52;;;5.12;;
43325;SDS011;28920;59.862;30.636;2022-08-20T09:01:26;16.02;;;4.40;;
43325;SDS011;28920;59.862;30.636;2022-08-20T09:03:57;17.20;;;4.70;;
43325;SDS011;28920;59.862;30.636;2022-08-20T09:06:25;20.85;;;4.70;;
43325;SDS011;28920;59.862;30.636;2022-08-20T09:08:56;7.15;;;3.55;;
43325;SDS011;28920;59.862;30.636;2022-08-20T09:11:27;11.57;;;4.78;;
43325;SDS011;28920;59.862;30.636;2022-08-20T09:13:57;14.40;;;5.10;;
43325;SDS011;28920;59.862;30.636;2022-08-20T09:16:24;17.15;;;4.82;;
43325;SDS011;28920;59.862;30.636;2022-08-20T09:18:53;14.23;;;5.28;;
43325;SDS011;28920;59.862;30.636;2022-08-20T09:21:22;14.02;;;4.12;;
43325;SDS011;28920;59.862;30.636;2022-08-20T09:23:49;27.37;;;4.78;;
43325;SDS011;28920;59.862;30.636;2022-08-20T09:26:18;13.40;;;3.90;;
43325;SDS011;28920;59.862;30.636;2022-08-20T09:28:47;19.92;;;4.40;;
43325;SDS011;28920;59.862;30.636;2022-08-20T09:31:14;13.00;;;4.25;;
43325;SDS011;28920;59.862;30.636;2022-08-20T09:33:43;16.75;;;4.37;;
43325;SDS011;28920;59.862;30.636;2022-08-20T09:36:11;9.63;;;3.50;;
43325;SDS011;28920;59.862;30.636;2022-08-20T09:38:39;14.38;;;4.03;;
43325;SDS011;28920;59.862;30.636;2022-08-20T09:41:07;16.62;;;3.95;;
43325;SDS011;28920;59.862;30.636;2022-08-20T09:43:36;10.45;;;3.65;;
43325;SDS011;28920;59.862;30.636;2022-08-20T09:46:04;11.18;;;4.43;;
43325;SDS011;28920;59.862;30.636;2022-08-20T09:48:32;17.45;;;4.75;;
43325;SDS011;28920;59.862;30.636;2022-08-20T09:51:00;20.15;;;5.40;;
43325;SDS011;28920;59.862;30.636;2022-08-20T09:53:28;14.48;;;5.60;;
43325;SDS011;28920;59.862;30.636;2022-08-20T09:55:56;21.52;;;5.30;;
43325;SDS011;28920;59.862;30.636;2022-08-20T09:58:33;16.35;;;4.15;;
43325;SDS011;28920;59.862;30.636;2022-08-20T10:01:07;9.07;;;3.60;;
43325;SDS011;28920;59.862;30.636;2022-08-20T10:03:39;8.88;;;3.37;;
43325;SDS011;28920;59.862;30.636;2022-08-20T10:06:07;12.50;;;4.07;;
43325;SDS011;28920;59.862;30.636;2022-08-20T10:08:36;14.15;;;4.12;;
43325;SDS011;28920;59.862;30.636;2022-08-20T10:11:04;13.95;;;4.87;;
43325;SDS011;28920;59.862;30.636;2022-08-20T10:13:32;13.60;;;6.10;;
43325;SDS011;28920;59.862;30.636;2022-08-20T10:16:00;13.77;;;4.28;;
43325;SDS011;28920;59.862;30.636;2022-08-20T10:18:30;17.60;;;4.50;;
43325;SDS011;28920;59.862;30.636;2022-08-20T10:20:57;13.62;;;3.80;;
43325;SDS011;28920;59.862;30.636;2022-08-20T10:23:25;17.60;;;4.00;;
43325;SDS011;28920;59.862;30.636;2022-08-20T10:25:53;14.98;;;4.87;;
43325;SDS011;28920;59.862;30.636;2022-08-20T10:28:21;12.70;;;3.92;;
43325;SDS011;28920;59.862;30.636;2022-08-20T10:30:49;10.75;;;3.65;;
43325;SDS011;28920;59.862;30.636;2022-08-20T10:33:17;10.70;;;3.75;;
43325;SDS011;28920;59.862;30.636;2022-08-20T10:35:46;10.35;;;3.58;;
43325;SDS011;28920;59.862;30.636;2022-08-20T10:38:14;5.97;;;2.92;;
43325;SDS011;28920;59.862;30.636;2022-08-20T10:40:42;7.65;;;3.47;;
43325;SDS011;28920;59.862;30.636;2022-08-20T10:43:10;10.93;;;4.00;;
43325;SDS011;28920;59.862;30.636;2022-08-20T10:45:38;9.23;;;3.58;;
43325;SDS011;28920;59.862;30.636;2022-08-20T10:48:06;11.88;;;3.65;;
43325;SDS011;28920;59.862;30.636;2022-08-20T10:50:33;7.12;;;3.00;;
43325;SDS011;28920;59.862;30.636;2022-08-20T10:53:03;10.25;;;3.35;;
43325;SDS011;28920;59.862;30.636;2022-08-20T10:55:31;9.25;;;3.45;;
43325;SDS011;28920;59.862;30.636;2022-08-20T10:57:58;13.20;;;3.50;;
43325;SDS011;28920;59.862;30.636;2022-08-20T11:00:27;11.48;;;4.40;;
43325;SDS011;28920;59.862;30.636;2022-08-20T11:02:55;11.65;;;3.60;;
43325;SDS011;28920;59.862;30.636;2022-08-20T11:05:22;9.18;;;3.40;;
43325;SDS011;28920;59.862;30.636;2022-08-20T11:07:50;6.12;;;3.87;;
43325;SDS011;28920;59.862;30.636;2022-08-20T11:10:21;14.70;;;3.73;;
43325;SDS011;28920;59.862;30.636;2022-08-20T11:12:50;8.88;;;3.45;;
43325;SDS011;28920;59.862;30.636;2022-08-20T11:15:18;11.57;;;3.45;;
43325;SDS011;28920;59.862;30.636;2022-08-20T11:17:46;12.48;;;3.28;;
43325;SDS011;28920;59.862;30.636;2022-08-20T11:20:15;9.93;;;3.35;;
43325;SDS011;28920;59.862;30.636;2022-08-20T11:22:44;11.38;;;3.50;;
43325;SDS011;28920;59.862;30.636;2022-08-20T11:25:12;7.62;;;3.78;;
43325;SDS011;28920;59.862;30.636;2022-08-20T11:27:43;7.95;;;3.80;;
43325;SDS011;28920;59.862;30.636;2022-08-20T11:30:13;9.27;;;3.97;;
43325;SDS011;28920;59.862;30.636;2022-08-20T11:32:46;4.95;;;3.47;;
43325;SDS011;28920;59.862;30.636;2022-08-20T11:35:17;10.70;;;4.25;;
43325;SDS011;28920;59.862;30.636;2022-08-20T11:37:49;6.82;;;3.40;;
43325;SDS011;28920;59.862;30.636;2022-08-20T11:40:18;10.27;;;4.55;;
43325;SDS011;28920;59.862;30.636;2022-08-20T11:42:48;12.82;;;3.50;;
43325;SDS011;28920;59.862;30.636;2022-08-20T11:45:16;9.40;;;3.72;;
43325;SDS011;28920;59.862;30.636;2022-08-20T11:47:45;10.18;;;3.78;;
43325;SDS011;28920;59.862;30.636;2022-08-20T11:50:14;8.27;;;2.80;;
43325;SDS011;28920;59.862;30.636;2022-08-20T11:52:43;8.90;;;3.30;;
43325;SDS011;28920;59.862;30.636;2022-08-20T11:55:12;8.85;;;3.97;;
43325;SDS011;28920;59.862;30.636;2022-08-20T11:57:42;4.07;;;2.97;;
43325;SDS011;28920;59.862;30.636;2022-08-20T12:00:15;6.20;;;3.30;;
